Humidity-temperature Sensor

Selected Measurement Type: Air Temperature

 
Air Temperature [°C]     6 entries per hour
Showing data from 4/25/2015 (00:00:00 Z) to 4/24/2015 (00:01:00 Z)
Previous Next [ Day | 3-Days | 7-Days ]
First Last
Prev [ Day | 3-Days | 7-Days ] Next
First Last

Start Time:     :
End Time:     :     
Time (in GMT) :00 :50 :40 :30 :20 :10
Previous Next [ Day | 3-Days | 7-Days ]
First Last
Prev [ Day | 3-Days | 7-Days ] Next
First Last


123 => good data
MM => data is determined as missing
-- => data not received/configured
Back to Top Back to Top
4/25/2015 00:00 to 23:10 27.14 27.15 27.25 27.30 27.32 27.49
4/24/2015 23:00 to 22:10 27.39 27.43 27.28 27.30 27.22 27.28
4/24/2015 22:00 to 21:10 27.45 27.49 27.16 27.43 27.40 27.27
4/24/2015 21:00 to 20:10 27.29 27.30 27.26 27.20 27.19 27.11
4/24/2015 20:00 to 19:10 27.08 27.11 27.10 27.23 27.01 27.12
4/24/2015 19:00 to 18:10 27.21 27.11 27.11 27.16 27.17 27.16
4/24/2015 18:00 to 17:10 26.99 27.01 27.09 26.95 26.88 26.83
4/24/2015 17:00 to 16:10 26.86 26.94 26.91 26.97 27.00 27.00
4/24/2015 16:00 to 15:10 26.95 27.06 27.05 27.06 27.07 27.12
4/24/2015 15:00 to 14:10 27.12 27.11 27.14 27.16 27.13 27.20
4/24/2015 14:00 to 13:10 27.20 27.19 27.23 27.19 27.18 27.21
4/24/2015 13:00 to 12:10 27.01 26.87 26.67 26.55 26.45 26.37
4/24/2015 12:00 to 11:10 26.42 26.37 26.48 26.49 26.41 26.42
4/24/2015 11:00 to 10:10 26.48 26.42 26.40 26.37 26.38 26.42
4/24/2015 10:00 to 9:10 26.37 26.41 26.35 26.45 26.43 26.44
4/24/2015 09:00 to 8:10 26.44 26.44 26.42 26.41 26.48 26.49
4/24/2015 08:00 to 7:10 26.47 26.47 26.49 26.45 26.51 26.53
4/24/2015 07:00 to 6:10 26.51 26.52 26.55 26.57 26.56 26.58
4/24/2015 06:00 to 5:10 26.60 26.59 26.63 26.64 26.65 26.64
4/24/2015 05:00 to 4:10 26.67 26.71 26.77 26.68 26.72 26.71
4/24/2015 04:00 to 3:10 26.67 26.75 26.76 26.74 26.78 26.83
4/24/2015 03:00 to 2:10 26.84 26.87 26.81 26.83 26.79 26.79
4/24/2015 02:00 to 1:10 26.75 26.77 26.76 26.74 26.74 26.82
4/24/2015 01:00 to 0:10 26.75 26.80 26.79 26.76 26.80 26.80